createdAt,value
2023-03-05T00:01:41.029Z,100480.01
2023-03-05T00:04:14.747Z,100478.23
2023-03-05T00:06:43.484Z,100477.70
2023-03-05T00:09:12.070Z,100478.23
2023-03-05T00:11:40.642Z,100472.58
2023-03-05T00:14:10.909Z,100473.10
2023-03-05T00:16:40.299Z,100472.75
2023-03-05T00:19:09.184Z,100472.05
2023-03-05T00:21:41.007Z,100471.00
2023-03-05T00:24:15.172Z,100469.41
2023-03-05T00:26:45.096Z,100470.66
2023-03-05T00:29:18.889Z,100467.48
2023-03-05T00:31:47.722Z,100460.96
2023-03-05T00:34:19.010Z,100467.33
2023-03-05T00:36:52.702Z,100472.65
2023-03-05T00:39:22.112Z,100473.36
2023-03-05T00:41:51.283Z,100472.50
2023-03-05T00:44:22.296Z,100472.32
2023-03-05T00:46:52.960Z,100467.71
2023-03-05T00:49:21.470Z,100469.31
2023-03-05T00:51:49.972Z,100470.53
2023-03-05T00:54:18.722Z,100467.72
2023-03-05T00:56:49.326Z,100467.54
2023-03-05T00:59:17.793Z,100465.42
2023-03-05T01:01:46.246Z,100464.36
2023-03-05T01:04:14.636Z,100464.02
2023-03-05T01:06:44.949Z,100461.20
2023-03-05T01:09:15.432Z,100459.61
2023-03-05T01:11:44.019Z,100464.37
2023-03-05T01:14:12.555Z,100461.02
2023-03-05T01:16:41.116Z,100461.37
2023-03-05T01:19:09.962Z,100458.73
2023-03-05T01:21:38.690Z,100461.02
2023-03-05T01:24:07.868Z,100457.67
2023-03-05T01:26:36.405Z,100458.55
2023-03-05T01:29:05.210Z,100457.48
2023-03-05T01:31:33.700Z,100459.06
2023-03-05T01:34:02.439Z,100464.85
2023-03-05T01:36:32.119Z,100465.19
2023-03-05T01:39:01.469Z,100467.13
2023-03-05T01:41:30.042Z,100466.05
2023-03-05T01:43:58.469Z,100462.52
2023-03-05T01:46:38.829Z,100461.61
2023-03-05T01:49:38.481Z,100462.65
2023-03-05T01:52:19.746Z,100462.59
2023-03-05T01:54:59.386Z,100466.27
2023-03-05T01:57:43.005Z,100468.36
2023-03-05T02:00:25.640Z,100469.02
2023-03-05T02:02:54.433Z,100468.98
2023-03-05T02:05:29.884Z,100470.83
2023-03-05T02:08:07.105Z,100470.88
2023-03-05T02:10:45.433Z,100476.54
2023-03-05T02:13:27.313Z,100477.00
2023-03-05T02:15:59.548Z,100476.92
2023-03-05T02:18:28.323Z,100481.48
2023-03-05T02:20:56.826Z,100483.02
2023-03-05T02:23:29.219Z,100484.06
2023-03-05T02:25:57.717Z,100491.24
2023-03-05T02:28:37.684Z,100492.60
2023-03-05T02:31:13.811Z,100492.28
2023-03-05T02:33:42.313Z,100498.74
2023-03-05T02:36:12.318Z,100490.45
2023-03-05T02:38:42.778Z,100497.48
2023-03-05T02:41:12.135Z,100494.78
2023-03-05T02:43:41.039Z,100497.17
2023-03-05T02:46:10.144Z,100497.84
2023-03-05T02:48:38.653Z,100500.27
2023-03-05T02:51:08.258Z,100501.64
2023-03-05T02:53:36.974Z,100498.98
2023-03-05T02:56:05.972Z,100502.71
2023-03-05T02:58:36.257Z,100508.91
2023-03-05T03:01:05.184Z,100512.33
2023-03-05T03:03:34.240Z,100516.48
2023-03-05T03:06:02.920Z,100512.94
2023-03-05T03:08:31.426Z,100510.41
2023-03-05T03:11:12.740Z,100507.04
2023-03-05T03:13:41.867Z,100503.97
2023-03-05T03:16:15.787Z,100498.55
2023-03-05T03:18:47.559Z,100498.17
2023-03-05T03:21:23.350Z,100500.27
2023-03-05T03:23:51.881Z,100503.60
2023-03-05T03:26:20.629Z,100505.23
2023-03-05T03:28:49.072Z,100504.74
2023-03-05T03:31:17.705Z,100503.55
2023-03-05T03:33:46.199Z,100506.33
2023-03-05T03:36:14.868Z,100503.69
2023-03-05T03:38:43.377Z,100510.91
2023-03-05T03:41:11.778Z,100511.77
2023-03-05T03:43:41.603Z,100508.08
2023-03-05T03:46:10.072Z,100509.63
2023-03-05T03:48:38.636Z,100516.95
2023-03-05T03:51:08.271Z,100516.96
2023-03-05T03:53:37.272Z,100522.05
2023-03-05T03:56:06.070Z,100516.61
2023-03-05T03:58:34.601Z,100518.89
2023-03-05T04:01:03.116Z,100519.17
2023-03-05T04:03:31.519Z,100513.17
2023-03-05T04:06:00.036Z,100515.81
2023-03-05T04:08:28.672Z,100523.04
2023-03-05T04:10:57.509Z,100527.08
2023-03-05T04:13:25.935Z,100528.54
2023-03-05T04:15:55.096Z,100531.39
2023-03-05T04:18:23.902Z,100530.65
2023-03-05T04:20:52.507Z,100531.14
2023-03-05T04:23:21.340Z,100536.47
2023-03-05T04:25:49.794Z,100542.33
2023-03-05T04:28:18.308Z,100541.73
2023-03-05T04:30:46.898Z,100539.84
2023-03-05T04:33:16.324Z,100548.59
2023-03-05T04:35:44.898Z,100553.11
2023-03-05T04:38:13.883Z,100562.48
2023-03-05T04:40:43.236Z,100562.94
2023-03-05T04:43:11.686Z,100559.67
2023-03-05T04:45:42.353Z,100559.27
2023-03-05T04:48:15.189Z,100558.70
2023-03-05T04:50:43.653Z,100558.09
2023-03-05T04:53:12.278Z,100567.69
2023-03-05T04:55:40.905Z,100569.16
2023-03-05T04:58:09.468Z,100567.67
2023-03-05T05:00:37.991Z,100572.84
2023-03-05T05:03:06.702Z,100576.27
2023-03-05T05:05:35.221Z,100575.58
2023-03-05T05:08:04.841Z,100578.61
2023-03-05T05:10:33.388Z,100584.50
2023-03-05T05:13:01.988Z,100587.30
2023-03-05T05:15:30.575Z,100588.61
2023-03-05T05:17:59.186Z,100596.95
2023-03-05T05:20:30.948Z,100598.25
2023-03-05T05:23:00.535Z,100603.41
2023-03-05T05:25:29.077Z,100606.63
2023-03-05T05:27:57.648Z,100603.28
2023-03-05T05:30:26.977Z,100598.65
2023-03-05T05:32:55.450Z,100602.54
2023-03-05T05:35:24.181Z,100603.60
2023-03-05T05:37:53.893Z,100603.30
2023-03-05T05:40:22.753Z,100602.10
2023-03-05T05:42:52.628Z,100603.71
2023-03-05T05:45:21.326Z,100602.87
2023-03-05T05:47:49.835Z,100603.98
2023-03-05T05:50:22.226Z,100608.29
2023-03-05T05:52:52.448Z,100606.76
2023-03-05T05:55:21.830Z,100607.51
2023-03-05T05:57:50.604Z,100608.78
2023-03-05T06:00:19.840Z,100597.20
2023-03-05T06:02:48.660Z,100602.88
2023-03-05T06:05:17.794Z,100601.31
2023-03-05T06:07:46.238Z,100601.37
2023-03-05T06:10:14.817Z,100607.38
2023-03-05T06:12:43.316Z,100607.38
2023-03-05T06:15:11.881Z,100608.79
2023-03-05T06:17:40.687Z,100610.04
2023-03-05T06:20:10.311Z,100617.98
2023-03-05T06:22:39.614Z,100620.61
2023-03-05T06:25:09.988Z,100613.92
2023-03-05T06:27:39.538Z,100620.95
2023-03-05T06:30:10.687Z,100619.70
2023-03-05T06:32:39.452Z,100619.39
2023-03-05T06:35:09.263Z,100618.73
2023-03-05T06:37:38.001Z,100616.64
2023-03-05T06:40:07.954Z,100616.02
2023-03-05T06:42:36.353Z,100619.39
2023-03-05T06:45:05.606Z,100619.25
2023-03-05T06:47:34.041Z,100620.52
2023-03-05T06:50:02.845Z,100619.67
2023-03-05T06:52:31.521Z,100620.39
2023-03-05T06:55:00.149Z,100624.98
2023-03-05T06:57:28.689Z,100627.98
2023-03-05T06:59:58.049Z,100629.98
2023-03-05T07:02:27.174Z,100634.18
2023-03-05T07:04:55.784Z,100636.48
2023-03-05T07:07:24.420Z,100642.48
2023-03-05T07:09:53.942Z,100643.36
2023-03-05T07:12:22.520Z,100642.84
2023-03-05T07:14:51.035Z,100641.77
2023-03-05T07:17:19.544Z,100645.13
2023-03-05T07:19:48.132Z,100645.30
2023-03-05T07:22:16.681Z,100645.84
2023-03-05T07:24:45.457Z,100646.71
2023-03-05T07:27:13.872Z,100643.89
2023-03-05T07:29:42.381Z,100643.52
2023-03-05T07:32:10.908Z,100641.20
2023-03-05T07:34:39.472Z,100644.70
2023-03-05T07:37:07.907Z,100646.83
2023-03-05T07:39:47.305Z,100648.77
2023-03-05T07:42:20.262Z,100653.89
2023-03-05T07:44:55.111Z,100654.58
2023-03-05T07:47:23.651Z,100651.23
2023-03-05T07:49:52.274Z,100646.97
2023-03-05T07:52:20.993Z,100647.14
2023-03-05T07:54:50.014Z,100648.08
2023-03-05T07:57:19.094Z,100655.13
2023-03-05T07:59:47.653Z,100657.92
2023-03-05T08:02:16.193Z,100652.27
2023-03-05T08:04:44.684Z,100655.13
2023-03-05T08:07:16.379Z,100655.65
2023-03-05T08:09:44.761Z,100649.64
2023-03-05T08:12:14.010Z,100657.05
2023-03-05T08:14:42.661Z,100658.81
2023-03-05T08:17:11.419Z,100658.27
2023-03-05T08:19:40.603Z,100657.18
2023-03-05T08:22:09.141Z,100653.33
2023-03-05T08:24:37.878Z,100643.27
2023-03-05T08:27:06.364Z,100640.62
2023-03-05T08:29:34.964Z,100643.45
2023-03-05T08:32:03.990Z,100644.33
2023-03-05T08:34:32.445Z,100640.08
2023-03-05T08:37:00.910Z,100639.19
2023-03-05T08:39:30.356Z,100637.77
2023-03-05T08:41:59.088Z,100634.07
2023-03-05T08:44:28.064Z,100634.09
2023-03-05T08:46:56.794Z,100640.42
2023-03-05T08:49:25.321Z,100644.14
2023-03-05T08:51:55.454Z,100645.03
2023-03-05T08:54:24.145Z,100642.54
2023-03-05T08:56:52.700Z,100641.82
2023-03-05T08:59:21.483Z,100637.96
2023-03-05T09:01:50.365Z,100634.05
2023-03-05T09:04:18.958Z,100631.22
2023-03-05T09:06:49.216Z,100631.92
2023-03-05T09:09:20.809Z,100636.16
2023-03-05T09:11:49.442Z,100630.33
2023-03-05T09:14:18.021Z,100624.14
2023-03-05T09:16:46.698Z,100622.52
2023-03-05T09:19:15.341Z,100619.16
2023-03-05T09:21:43.855Z,100617.02
2023-03-05T09:24:13.607Z,100620.70
2023-03-05T09:26:43.619Z,100616.27
2023-03-05T09:29:12.597Z,100615.58
2023-03-05T09:31:41.109Z,100617.51
2023-03-05T09:34:12.142Z,100617.32
2023-03-05T09:36:41.322Z,100622.27
2023-03-05T09:39:11.248Z,100618.55
2023-03-05T09:41:59.709Z,100615.23
2023-03-05T09:44:38.769Z,100611.67
2023-03-05T09:47:45.346Z,100613.07
2023-03-05T09:50:51.276Z,100615.23
2023-03-05T09:53:31.813Z,100609.75
2023-03-05T09:56:12.607Z,100613.98
2023-03-05T09:58:58.834Z,100608.69
2023-03-05T10:01:40.261Z,100612.07
2023-03-05T10:04:35.599Z,100609.77
2023-03-05T10:07:16.170Z,100606.22
2023-03-05T10:10:14.817Z,100605.33
2023-03-05T10:13:00.677Z,100598.27
2023-03-05T10:15:52.431Z,100595.80
2023-03-05T10:18:52.438Z,100587.30
2023-03-05T10:22:11.869Z,100587.68
2023-03-05T10:25:01.670Z,100586.95
2023-03-05T10:27:45.440Z,100583.98
2023-03-05T10:30:40.821Z,100579.70
2023-03-05T10:34:01.903Z,100577.61
2023-03-05T10:37:13.817Z,100575.30
2023-03-05T10:40:13.755Z,100578.55
2023-03-05T10:43:22.528Z,100570.81
2023-03-05T10:45:58.390Z,100571.31
2023-03-05T10:48:55.795Z,100562.44
2023-03-05T10:52:06.671Z,100561.38
2023-03-05T10:54:36.432Z,100555.76
2023-03-05T10:57:32.031Z,100555.69
2023-03-05T11:00:06.773Z,100552.09
2023-03-05T11:03:03.660Z,100548.86
2023-03-05T11:05:39.948Z,100541.35
2023-03-05T11:08:44.340Z,100546.95
2023-03-05T11:11:21.123Z,100544.14
2023-03-05T11:13:58.690Z,100543.88
2023-03-05T11:16:51.747Z,100538.23
2023-03-05T11:19:26.934Z,100538.45
2023-03-05T11:22:21.283Z,100533.02
2023-03-05T11:25:12.814Z,100529.88
2023-03-05T11:27:54.542Z,100528.84
2023-03-05T11:30:36.694Z,100524.38
2023-03-05T11:33:21.055Z,100520.05
2023-03-05T11:35:52.887Z,100518.12
2023-03-05T11:38:26.534Z,100519.39
2023-03-05T11:40:57.879Z,100514.79
2023-03-05T11:43:27.256Z,100515.47
2023-03-05T11:46:05.315Z,100509.23
2023-03-05T11:48:40.472Z,100501.91
2023-03-05T11:51:29.189Z,100498.16
2023-03-05T11:54:07.997Z,100496.95
2023-03-05T11:56:41.630Z,100495.05
2023-03-05T11:59:36.486Z,100491.77
2023-03-05T12:02:19.621Z,100488.36
2023-03-05T12:04:49.410Z,100487.31
2023-03-05T12:07:58.209Z,100487.00
2023-03-05T12:10:27.651Z,100487.24
2023-03-05T12:13:06.705Z,100482.64
2023-03-05T12:15:56.175Z,100482.03
2023-03-05T12:18:45.111Z,100470.27
2023-03-05T12:21:41.186Z,100466.80
2023-03-05T12:24:28.420Z,100458.29
2023-03-05T12:27:03.857Z,100455.79
2023-03-05T12:33:42.379Z,100456.36
2023-03-05T12:36:24.369Z,100452.02
2023-03-05T12:39:04.851Z,100450.71
2023-03-05T12:41:37.816Z,100444.56
2023-03-05T12:44:06.714Z,100448.08
2023-03-05T12:46:40.050Z,100446.77
2023-03-05T12:49:23.641Z,100445.84
2023-03-05T12:52:05.830Z,100442.23
2023-03-05T12:54:42.211Z,100439.36
2023-03-05T12:57:20.063Z,100438.30
2023-03-05T13:00:00.967Z,100437.25
2023-03-05T13:02:43.210Z,100435.80
2023-03-05T13:05:37.888Z,100432.44
2023-03-05T13:08:18.536Z,100430.86
2023-03-05T13:11:05.026Z,100431.02
2023-03-05T13:13:43.194Z,100423.71
2023-03-05T13:16:40.447Z,100422.38
2023-03-05T13:19:18.319Z,100418.18
2023-03-05T13:22:11.754Z,100413.79
2023-03-05T13:24:41.433Z,100414.47
2023-03-05T13:27:45.234Z,100410.96
2023-03-05T13:30:27.877Z,100404.37
2023-03-05T13:33:05.779Z,100401.48
2023-03-05T13:35:35.580Z,100403.77
2023-03-05T13:38:04.834Z,100403.14
2023-03-05T13:40:36.795Z,100400.52
2023-03-05T13:43:20.087Z,100398.79
2023-03-05T13:45:56.821Z,100395.27
2023-03-05T13:48:28.722Z,100390.98
2023-03-05T13:50:58.920Z,100387.46
2023-03-05T13:53:31.986Z,100385.64
2023-03-05T13:56:09.490Z,100382.98
2023-03-05T13:58:56.387Z,100382.55
2023-03-05T14:01:43.851Z,100379.44
2023-03-05T14:04:18.102Z,100377.27
2023-03-05T14:06:56.974Z,100376.94
2023-03-05T14:09:38.883Z,100371.11
2023-03-05T14:12:33.567Z,100373.63
2023-03-05T14:15:07.240Z,100368.57
2023-03-05T14:17:45.353Z,100364.83
2023-03-05T14:20:28.809Z,100362.13
2023-03-05T14:23:00.707Z,100361.45
2023-03-05T14:25:42.783Z,100356.00
2023-03-05T14:28:17.418Z,100359.10
2023-03-05T14:30:53.870Z,100352.70
2023-03-05T14:33:34.766Z,100349.65
2023-03-05T14:36:07.147Z,100346.23
2023-03-05T14:38:43.569Z,100346.54
2023-03-05T14:41:38.550Z,100344.40
2023-03-05T14:44:17.386Z,100342.30
2023-03-05T14:46:50.166Z,100344.96
2023-03-05T14:49:18.712Z,100341.81
2023-03-05T14:51:50.928Z,100339.83
2023-03-05T14:54:28.502Z,100338.40
2023-03-05T14:57:00.385Z,100332.92
2023-03-05T14:59:29.524Z,100330.61
2023-03-05T15:01:58.295Z,100331.98
2023-03-05T15:04:26.837Z,100329.30
2023-03-05T15:06:55.790Z,100331.44
2023-03-05T15:09:24.289Z,100331.31
2023-03-05T15:11:52.741Z,100332.22
2023-03-05T15:14:21.229Z,100333.84
2023-03-05T15:16:56.687Z,100331.75
2023-03-05T15:19:28.363Z,100328.41
2023-03-05T15:21:56.949Z,100326.46
2023-03-05T15:24:27.211Z,100330.67
2023-03-05T15:26:55.831Z,100327.48
2023-03-05T15:29:24.460Z,100325.35
2023-03-05T15:31:54.130Z,100326.16
2023-03-05T15:34:22.797Z,100327.20
2023-03-05T15:36:53.735Z,100327.44
2023-03-05T15:39:27.453Z,100326.59
2023-03-05T15:41:58.541Z,100322.77
2023-03-05T15:44:27.802Z,100322.30
2023-03-05T15:46:59.504Z,100320.92
2023-03-05T15:49:28.505Z,100319.73
2023-03-05T15:51:57.271Z,100318.47
2023-03-05T15:54:27.873Z,100318.84
2023-03-05T15:56:56.370Z,100318.12
2023-03-05T15:59:28.617Z,100313.69
2023-03-05T16:01:57.170Z,100317.05
2023-03-05T16:04:25.949Z,100319.55
2023-03-05T16:06:55.821Z,100325.05
2023-03-05T16:09:26.806Z,100328.11
2023-03-05T16:11:55.719Z,100329.57
2023-03-05T16:14:30.736Z,100331.05
2023-03-05T16:17:03.536Z,100328.44
2023-03-05T16:20:01.473Z,100327.75
2023-03-05T16:23:01.028Z,100324.94
2023-03-05T16:25:30.041Z,100326.55
2023-03-05T16:27:59.626Z,100331.70
2023-03-05T16:30:28.192Z,100328.02
2023-03-05T16:33:03.556Z,100328.39
2023-03-05T16:35:33.028Z,100332.64
2023-03-05T16:38:08.629Z,100336.38
2023-03-05T16:41:06.363Z,100329.52
2023-03-05T16:43:27.796Z,100328.64
2023-03-05T16:46:04.647Z,100326.54
2023-03-05T16:48:41.188Z,100322.31
2023-03-05T16:51:11.886Z,100320.90
2023-03-05T16:53:42.948Z,100323.36
2023-03-05T17:00:39.714Z,100323.90
2023-03-05T17:03:27.033Z,100326.76
2023-03-05T17:06:00.765Z,100330.09
2023-03-05T17:08:29.290Z,100326.61
2023-03-05T17:11:00.667Z,100324.66
2023-03-05T17:13:33.407Z,100323.41
2023-03-05T17:16:02.656Z,100318.09
2023-03-05T17:18:35.177Z,100317.52
2023-03-05T17:21:04.938Z,100307.63
2023-03-05T17:23:38.675Z,100311.87
2023-03-05T17:26:21.147Z,100305.69
2023-03-05T17:28:54.374Z,100301.63
2023-03-05T17:31:30.876Z,100299.50
2023-03-05T17:33:59.646Z,100298.08
2023-03-05T17:36:46.466Z,100298.05
2023-03-05T17:39:23.795Z,100300.02
2023-03-05T17:41:55.475Z,100296.16
2023-03-05T17:44:24.252Z,100297.40
2023-03-05T17:47:04.511Z,100294.92
2023-03-05T17:50:22.420Z,100292.09
2023-03-05T17:53:43.956Z,100292.95
2023-03-05T17:56:47.903Z,100296.27
2023-03-05T17:59:42.110Z,100298.20
2023-03-05T18:02:41.861Z,100294.67
2023-03-05T18:05:12.037Z,100290.08
2023-03-05T18:07:40.525Z,100290.96
2023-03-05T18:10:11.771Z,100293.80
2023-03-05T18:12:40.984Z,100294.85
2023-03-05T18:15:14.774Z,100291.85
2023-03-05T18:17:43.650Z,100290.77
2023-03-05T18:20:53.387Z,100294.83
2023-03-05T18:23:24.954Z,100292.37
2023-03-05T18:25:54.037Z,100284.96
2023-03-05T18:28:34.460Z,100285.67
2023-03-05T18:31:06.436Z,100289.20
2023-03-05T18:33:38.352Z,100293.27
2023-03-05T18:36:13.961Z,100292.60
2023-03-05T18:38:43.984Z,100293.66
2023-03-05T18:41:28.201Z,100293.16
2023-03-05T18:44:02.500Z,100293.73
2023-03-05T18:46:34.548Z,100297.10
2023-03-05T18:49:06.342Z,100293.73
2023-03-05T18:51:48.187Z,100297.99
2023-03-05T18:54:28.289Z,100299.41
2023-03-05T18:56:59.359Z,100299.08
2023-03-05T18:59:34.768Z,100302.48
2023-03-05T19:02:28.707Z,100305.86
2023-03-05T19:05:03.791Z,100302.20
2023-03-05T19:07:57.849Z,100303.27
2023-03-05T19:10:39.176Z,100299.39
2023-03-05T19:13:34.804Z,100302.92
2023-03-05T19:16:20.833Z,100301.86
2023-03-05T19:19:17.453Z,100300.45
2023-03-05T19:21:56.581Z,100301.34
2023-03-05T19:24:30.052Z,100303.11
2023-03-05T19:27:01.473Z,100305.25
2023-03-05T19:29:37.742Z,100305.42
2023-03-05T19:32:14.411Z,100303.67
2023-03-05T19:34:43.424Z,100301.71
2023-03-05T19:37:13.632Z,100301.21
2023-03-05T19:39:43.314Z,100305.09
2023-03-05T19:42:15.053Z,100299.98
2023-03-05T19:44:46.554Z,100298.77
2023-03-05T19:47:17.285Z,100295.26
2023-03-05T19:49:45.868Z,100298.25
2023-03-05T19:52:14.500Z,100295.79
2023-03-05T19:54:43.065Z,100292.42
2023-03-05T19:57:11.571Z,100293.15
2023-03-05T19:59:40.424Z,100289.11
2023-03-05T20:02:14.541Z,100289.98
2023-03-05T20:04:46.082Z,100288.20
2023-03-05T20:07:15.983Z,100287.34
2023-03-05T20:09:44.700Z,100285.43
2023-03-05T20:12:14.970Z,100281.03
2023-03-05T20:14:43.468Z,100282.60
2023-03-05T20:17:11.939Z,100282.44
2023-03-05T20:19:40.431Z,100284.20
2023-03-05T20:22:09.074Z,100285.10
2023-03-05T20:24:37.685Z,100283.33
2023-03-05T20:27:06.201Z,100281.38
2023-03-05T20:29:34.749Z,100281.54
2023-03-05T20:32:03.334Z,100279.61
2023-03-05T20:34:31.791Z,100280.49
2023-03-05T20:37:01.962Z,100277.34
2023-03-05T20:39:30.641Z,100276.98
2023-03-05T20:41:59.379Z,100273.80
2023-03-05T20:44:27.927Z,100274.34
2023-03-05T20:47:32.484Z,100275.21
2023-03-05T20:50:09.829Z,100277.70
2023-03-05T20:52:39.200Z,100280.73
2023-03-05T20:55:08.921Z,100276.84
2023-03-05T20:57:37.677Z,100273.84
2023-03-05T21:00:07.219Z,100275.27
2023-03-05T21:02:35.928Z,100277.56
2023-03-05T21:05:04.979Z,100275.98
2023-03-05T21:07:33.459Z,100277.02
2023-03-05T21:10:02.228Z,100274.21
2023-03-05T21:12:33.273Z,100272.27
2023-03-05T21:15:01.820Z,100271.39
2023-03-05T21:17:30.309Z,100274.03
2023-03-05T21:19:58.819Z,100271.77
2023-03-05T21:22:27.352Z,100272.64
2023-03-05T21:25:24.963Z,100269.63
2023-03-05T21:28:04.032Z,100265.05
2023-03-05T21:30:35.544Z,100261.70
2023-03-05T21:33:09.291Z,100258.35
2023-03-05T21:35:39.127Z,100260.30
2023-03-05T21:38:09.387Z,100255.89
2023-03-05T21:40:43.851Z,100257.46
2023-03-05T21:43:13.747Z,100255.70
2023-03-05T21:45:42.495Z,100254.50
2023-03-05T21:48:11.016Z,100241.98
2023-03-05T21:53:55.484Z,100238.85
2023-03-05T21:56:26.055Z,100236.02
2023-03-05T21:58:54.601Z,100239.02
2023-03-05T22:01:23.159Z,100239.72
2023-03-05T22:03:51.668Z,100240.60
2023-03-05T22:06:20.829Z,100232.15
2023-03-05T22:08:49.400Z,100230.56
2023-03-05T22:11:20.952Z,100225.13
2023-03-05T22:13:49.589Z,100226.37
2023-03-05T22:16:27.065Z,100235.55
2023-03-05T22:18:56.009Z,100236.07
2023-03-05T22:21:27.689Z,100227.80
2023-03-05T22:23:57.473Z,100231.67
2023-03-05T22:26:34.797Z,100230.78
2023-03-05T22:29:04.318Z,100231.14
2023-03-05T22:31:32.819Z,100224.08
2023-03-05T22:34:01.464Z,100217.02
2023-03-05T22:36:30.198Z,100212.08
2023-03-05T22:39:01.279Z,100211.56
2023-03-05T22:41:30.787Z,100210.33
2023-03-05T22:43:59.265Z,100210.17
2023-03-05T22:46:28.105Z,100208.58
2023-03-05T22:48:56.675Z,100198.90
2023-03-05T22:51:25.150Z,100195.38
2023-03-05T22:53:53.588Z,100195.55
2023-03-05T22:56:22.159Z,100197.64
2023-03-05T22:58:50.673Z,100198.17
2023-03-05T23:01:26.209Z,100199.41
2023-03-05T23:04:43.897Z,100204.16
2023-03-05T23:07:12.298Z,100210.33
2023-03-05T23:09:40.844Z,100214.20
2023-03-05T23:12:10.691Z,100218.61
2023-03-05T23:14:39.219Z,100216.30
2023-03-05T23:17:07.659Z,100212.42
2023-03-05T23:19:39.756Z,100218.05
2023-03-05T23:22:11.482Z,100215.59
2023-03-05T23:24:40.532Z,100219.65
2023-03-05T23:27:14.040Z,100220.17
2023-03-05T23:30:22.993Z,100222.12
2023-03-05T23:33:11.533Z,100223.00
2023-03-05T23:35:43.367Z,100222.80
2023-03-05T23:38:14.258Z,100224.20
2023-03-05T23:40:46.794Z,100222.27
2023-03-05T23:43:16.330Z,100220.87
2023-03-05T23:45:48.242Z,100221.05
2023-03-05T23:48:18.169Z,100218.89
2023-03-05T23:50:48.956Z,100216.05
2023-03-05T23:53:31.376Z,100211.45
2023-03-05T23:55:59.991Z,100214.43
2023-03-05T23:58:28.596Z,100213.02
